Time;durP1;ratioP1;P1;durP2;ratioP2;P2;SDS_P1;SDS_P2;PMS_P1;PMS_P2;Temp;Humidity;BMP_temperature;BMP_pressure;BME280_temperature;BME280_humidity;BME280_pressure;Samples;Min_cycle;Max_cycle;Signal;HPM_P1;HPM_P2
2023/02/23 00:01:46;;;;;;;;;;;;;;;14.18;40.21;98770.94;4965170;28;19928;-76
2023/02/23 00:04:11;;;;;;;;;;;;;;;14.15;40.15;98771.22;4984480;28;19937;-76
2023/02/23 00:06:36;;;;;;;;;;;;;;;14.13;40.26;98765.28;4983167;28;19918;-76
2023/02/23 00:09:07;;;;;;;;;;;;;;;14.11;40.02;98761.97;4966126;28;19924;-75
2023/02/23 00:11:32;;;;;;;;;;;;;;;14.10;40.29;98757.69;4951798;28;20004;-75
2023/02/23 00:13:59;;;;;;;;;;;;;;;14.07;40.19;98755.34;4949709;28;20441;-76
2023/02/23 00:16:25;;;;;;;;;;;;;;;14.03;40.28;98753.97;4965799;28;19953;-76
2023/02/23 00:18:54;;;;;;;;;;;;;;;14.00;40.16;98755.06;4950449;28;19969;-77
2023/02/23 00:21:20;;;;;;;;;;;;;;;13.99;40.65;98763.91;4949787;28;19961;-75
2023/02/23 00:23:53;;;;;;;;;;;;;;;13.97;40.36;98749.28;4965333;28;19918;-75
2023/02/23 00:26:24;;;;;;;;;;;;;;;13.95;40.36;98757.28;4965646;28;20454;-75
2023/02/23 00:28:51;;;;;;;;;;;;;;;13.91;40.61;98753.25;4957016;28;19925;-75
2023/02/23 00:31:17;;;;;;;;;;;;;;;13.89;40.57;98763.09;4966305;28;19925;-75
2023/02/23 00:33:42;;;;;;;;;;;;;;;13.87;40.56;98755.34;4966112;28;19918;-76
2023/02/23 00:36:13;;;;;;;;;;;;;;;13.85;40.68;98769.56;4982226;28;20298;-72
2023/02/23 00:38:38;;;;;;;;;;;;;;;13.82;40.38;98765.44;4982714;28;20682;-73
2023/02/23 00:41:16;;;;;;;;;;;;;;;13.81;40.49;98761.13;4950011;28;20005;-72
2023/02/23 00:43:46;;;;;;;;;;;;;;;13.76;40.48;98763.34;4965673;28;19918;-72
2023/02/23 00:46:12;;;;;;;;;;;;;;;13.75;40.39;98769.56;4963988;28;19918;-73
2023/02/23 00:48:38;;;;;;;;;;;;;;;13.72;40.81;98765.41;4966284;28;20359;-73
2023/02/23 00:51:03;;;;;;;;;;;;;;;13.68;40.49;98766.66;4965850;28;20378;-73
2023/02/23 00:53:29;;;;;;;;;;;;;;;13.67;40.77;98758.91;4948184;28;19930;-74
2023/02/23 00:55:55;;;;;;;;;;;;;;;13.65;40.56;98761.69;4983602;28;19925;-73
2023/02/23 00:58:21;;;;;;;;;;;;;;;13.64;40.76;98761.81;4965134;28;20005;-73
2023/02/23 01:00:46;;;;;;;;;;;;;;;13.62;40.78;98769.00;4964360;28;20009;-73
2023/02/23 01:03:11;;;;;;;;;;;;;;;13.57;40.60;98757.09;4983219;28;20356;-73
2023/02/23 01:05:37;;;;;;;;;;;;;;;13.54;40.64;98759.19;4948200;28;19918;-74
2023/02/23 01:08:03;;;;;;;;;;;;;;;13.51;40.97;98765.50;4965076;28;20407;-73
2023/02/23 01:10:28;;;;;;;;;;;;;;;13.50;40.90;98761.22;4949982;28;19929;-73
2023/02/23 01:12:54;;;;;;;;;;;;;;;13.47;40.91;98763.28;4964033;28;19918;-73
2023/02/23 01:15:19;;;;;;;;;;;;;;;13.44;40.78;98764.41;4965323;28;19929;-74
2023/02/23 01:17:45;;;;;;;;;;;;;;;13.43;41.19;98765.38;4963221;28;20282;-74
2023/02/23 01:20:18;;;;;;;;;;;;;;;13.42;40.70;98762.88;4958036;28;19918;-74
2023/02/23 01:22:47;;;;;;;;;;;;;;;13.38;40.86;98760.53;4959018;28;19976;-74
2023/02/23 01:25:13;;;;;;;;;;;;;;;13.37;40.93;98765.91;4958070;28;19926;-73
2023/02/23 01:27:39;;;;;;;;;;;;;;;13.36;40.91;98756.34;4957798;28;19929;-73
2023/02/23 01:30:05;;;;;;;;;;;;;;;13.34;41.23;98763.53;4946578;28;19929;-73
2023/02/23 01:32:30;;;;;;;;;;;;;;;13.31;40.90;98761.97;4966079;28;19922;-74
2023/02/23 01:34:55;;;;;;;;;;;;;;;13.28;41.09;98764.84;4965635;28;20021;-74
2023/02/23 01:37:20;;;;;;;;;;;;;;;13.26;40.95;98758.94;4949851;28;19924;-73
2023/02/23 01:39:46;;;;;;;;;;;;;;;13.23;41.01;98761.00;4983486;28;19921;-73
2023/02/23 01:42:12;;;;;;;;;;;;;;;13.19;41.20;98761.25;4965608;28;20309;-74
2023/02/23 01:44:38;;;;;;;;;;;;;;;13.18;41.49;98753.53;4949695;28;19933;-73
2023/02/23 01:47:03;;;;;;;;;;;;;;;13.17;41.27;98763.19;4979174;28;19922;-73
2023/02/23 01:49:29;;;;;;;;;;;;;;;13.15;41.51;98759.03;4966153;28;19946;-73
2023/02/23 01:51:54;;;;;;;;;;;;;;;13.13;41.48;98768.84;4950227;28;20001;-74
2023/02/23 01:54:27;;;;;;;;;;;;;;;13.11;41.68;98763.72;4965501;28;19917;-74
2023/02/23 01:56:59;;;;;;;;;;;;;;;13.09;41.95;98763.00;4951782;28;19929;-74
2023/02/23 01:59:27;;;;;;;;;;;;;;;13.07;41.93;98766.75;4971038;28;19922;-73
2023/02/23 02:01:52;;;;;;;;;;;;;;;13.04;41.89;98767.81;4969226;28;19922;-74
2023/02/23 02:04:18;;;;;;;;;;;;;;;13.03;41.98;98766.19;4952783;28;19937;-74
2023/02/23 02:06:44;;;;;;;;;;;;;;;13.02;41.85;98765.34;4966166;28;19922;-73
2023/02/23 02:09:15;;;;;;;;;;;;;;;13.01;41.88;98768.09;4949821;28;19932;-74
2023/02/23 02:11:43;;;;;;;;;;;;;;;12.99;41.66;98770.00;4967223;28;19918;-74
2023/02/23 02:14:11;;;;;;;;;;;;;;;12.97;41.94;98771.94;4985236;28;20409;-73
2023/02/23 02:17:01;;;;;;;;;;;;;;;12.96;41.72;98765.84;4968547;28;19918;-74
2023/02/23 02:19:36;;;;;;;;;;;;;;;12.93;41.58;98766.13;4984822;28;19925;-73
2023/02/23 02:22:04;;;;;;;;;;;;;;;12.91;42.03;98773.28;4987503;28;19953;-74
2023/02/23 02:24:46;;;;;;;;;;;;;;;12.88;41.73;98765.69;4986209;28;19918;-73
2023/02/23 02:27:29;;;;;;;;;;;;;;;12.85;42.10;98766.78;4993034;28;20009;-73
2023/02/23 02:30:01;;;;;;;;;;;;;;;12.85;41.95;98763.34;4953112;28;19972;-73
2023/02/23 02:32:46;;;;;;;;;;;;;;;12.83;42.01;98771.31;4968437;28;19922;-74
2023/02/23 02:35:27;;;;;;;;;;;;;;;12.82;42.17;98767.06;4986372;28;20016;-73
2023/02/23 02:38:12;;;;;;;;;;;;;;;12.79;41.99;98769.94;4969277;28;19918;-78
2023/02/23 02:40:54;;;;;;;;;;;;;;;12.79;42.21;98771.72;4987169;28;19926;-79
2023/02/23 02:43:22;;;;;;;;;;;;;;;12.75;42.36;98778.19;4963591;28;19918;-79
2023/02/23 02:46:05;;;;;;;;;;;;;;;12.73;42.11;98778.31;4996305;28;20411;-78
2023/02/23 02:49:00;;;;;;;;;;;;;;;12.72;42.09;98776.66;4978894;28;19917;-78
2023/02/23 02:51:27;;;;;;;;;;;;;;;12.71;42.15;98776.78;4936702;29;20438;-78
2023/02/23 02:53:55;;;;;;;;;;;;;;;12.69;42.50;98784.75;4920277;29;19919;-78
2023/02/23 02:56:21;;;;;;;;;;;;;;;12.70;42.21;98788.19;4935892;29;20343;-78
2023/02/23 02:58:48;;;;;;;;;;;;;;;12.70;42.18;98788.19;4920329;29;19975;-79
2023/02/23 04:19:08;;;;;;;;;;;;;;;12.13;43.33;98794.59;4957274;28;19968;-78
2023/02/23 04:21:34;;;;;;;;;;;;;;;12.09;43.27;98790.53;4975386;28;19918;-78
2023/02/23 04:23:59;;;;;;;;;;;;;;;12.08;43.20;98798.50;4958059;28;19918;-76
2023/02/23 04:26:24;;;;;;;;;;;;;;;12.04;43.37;98799.75;4941366;28;20016;-75
2023/02/23 04:28:49;;;;;;;;;;;;;;;12.01;43.40;98800.81;4975085;28;19922;-76
2023/02/23 04:31:17;;;;;;;;;;;;;;;11.99;43.28;98797.50;4973269;28;19918;-76
2023/02/23 04:33:42;;;;;;;;;;;;;;;11.98;43.37;98798.44;4993346;28;19917;-75
2023/02/23 04:36:07;;;;;;;;;;;;;;;11.94;43.52;98803.09;4976875;28;19976;-75
2023/02/23 04:38:33;;;;;;;;;;;;;;;11.91;43.33;98803.31;4976927;28;19965;-77
2023/02/23 04:40:58;;;;;;;;;;;;;;;11.89;43.10;98804.38;4976852;28;19968;-78
2023/02/23 04:43:23;;;;;;;;;;;;;;;12.20;59.56;98802.75;4976882;28;19918;-78
2023/02/23 04:45:49;;;;;;;;;;;;;;;12.24;56.80;98803.31;4976796;28;20384;-76
2023/02/23 04:48:14;;;;;;;;;;;;;;;12.18;53.96;98811.72;4994049;28;20008;-76
2023/02/23 04:50:39;;;;;;;;;;;;;;;12.08;52.39;98806.38;4977123;28;20297;-74
2023/02/23 04:53:05;;;;;;;;;;;;;;;12.02;51.49;98812.94;4992165;28;19925;-78
2023/02/23 04:55:31;;;;;;;;;;;;;;;11.95;50.71;98806.53;4976595;28;19925;-76
2023/02/23 04:57:58;;;;;;;;;;;;;;;11.90;50.19;98801.63;4976692;28;19933;-76
2023/02/23 05:00:23;;;;;;;;;;;;;;;11.87;49.14;98811.53;4960482;28;19924;-75
2023/02/23 05:02:48;;;;;;;;;;;;;;;11.83;48.60;98808.34;4960039;28;19922;-75
2023/02/23 05:05:14;;;;;;;;;;;;;;;11.82;48.31;98816.31;4976673;28;20381;-75
2023/02/23 05:07:39;;;;;;;;;;;;;;;11.80;48.11;98812.97;4974305;28;19922;-73
2023/02/23 05:10:05;;;;;;;;;;;;;;;11.83;47.57;98817.94;4956984;28;19918;-75
2023/02/23 05:12:30;;;;;;;;;;;;;;;11.86;46.74;98818.56;4957066;28;19925;-75
2023/02/23 05:14:56;;;;;;;;;;;;;;;11.94;46.45;98815.34;4957240;28;19919;-76
2023/02/23 05:17:21;;;;;;;;;;;;;;;12.11;45.87;98817.44;4940871;28;20385;-74
2023/02/23 05:19:47;;;;;;;;;;;;;;;12.26;45.23;98817.94;4956516;28;19918;-74
2023/02/23 05:22:15;;;;;;;;;;;;;;;12.51;44.42;98821.19;4956880;28;20286;-74
2023/02/23 05:24:40;;;;;;;;;;;;;;;12.75;43.55;98825.34;4974121;28;19918;-76
2023/02/23 05:27:06;;;;;;;;;;;;;;;13.02;43.41;98833.47;4956517;28;19992;-75
2023/02/23 05:29:32;;;;;;;;;;;;;;;13.29;42.54;98839.13;4956764;28;19950;-69
2023/02/23 05:31:57;;;;;;;;;;;;;;;13.60;42.15;98839.09;4956233;28;20427;-68
2023/02/23 05:34:22;;;;;;;;;;;;;;;13.90;41.40;98835.59;4957137;28;20009;-68
2023/02/23 05:36:48;;;;;;;;;;;;;;;14.25;40.89;98847.38;4956556;28;20062;-69
2023/02/23 05:39:13;;;;;;;;;;;;;;;14.61;40.00;98847.63;4956560;28;19918;-68
2023/02/23 05:41:38;;;;;;;;;;;;;;;15.05;48.49;98857.66;4959203;28;19922;-73
2023/02/23 05:44:04;;;;;;;;;;;;;;;15.90;59.43;98855.78;4975982;28;19925;-74
2023/02/23 05:46:29;;;;;;;;;;;;;;;16.67;58.15;98858.81;4978038;28;19918;-71
2023/02/23 05:48:55;;;;;;;;;;;;;;;17.21;52.43;98866.59;4975902;28;20333;-69
2023/02/23 05:51:20;;;;;;;;;;;;;;;17.65;49.71;98874.41;4992873;28;19918;-69
2023/02/23 05:53:46;;;;;;;;;;;;;;;18.06;51.83;98876.38;4979105;28;19928;-67
2023/02/23 05:56:12;;;;;;;;;;;;;;;18.58;49.93;98875.25;4978347;28;20008;-68
2023/02/23 05:58:37;;;;;;;;;;;;;;;19.11;49.30;98879.22;4959708;28;19945;-69
2023/02/23 06:01:03;;;;;;;;;;;;;;;19.60;47.09;98891.47;4991306;28;19918;-68
2023/02/23 06:03:28;;;;;;;;;;;;;;;19.98;45.52;98891.66;4975686;28;19926;-68
2023/02/23 06:05:55;;;;;;;;;;;;;;;20.43;45.07;98900.69;4975731;28;19917;-68
2023/02/23 06:08:21;;;;;;;;;;;;;;;20.87;43.80;98899.19;4975981;28;20399;-75
2023/02/23 06:10:46;;;;;;;;;;;;;;;21.24;42.88;98900.19;4975349;28;19918;-74
2023/02/23 06:13:11;;;;;;;;;;;;;;;21.66;41.89;98898.75;4975739;28;19925;-72
2023/02/23 06:15:37;;;;;;;;;;;;;;;22.07;40.77;98905.34;4975631;28;19925;-73
2023/02/23 06:18:02;;;;;;;;;;;;;;;22.45;40.34;98905.16;4969601;28;19930;-71
2023/02/23 06:20:28;;;;;;;;;;;;;;;22.96;43.53;98901.50;4977518;28;19973;-75
2023/02/23 06:22:53;;;;;;;;;;;;;;;23.40;42.59;98912.91;4940240;28;19977;-73
2023/02/23 06:25:19;;;;;;;;;;;;;;;23.81;41.44;98909.41;4973479;28;19918;-75
2023/02/23 06:27:44;;;;;;;;;;;;;;;24.08;40.11;98909.56;4940439;28;19973;-75
2023/02/23 06:30:10;;;;;;;;;;;;;;;24.41;39.30;98914.16;4940193;28;19933;-74
2023/02/23 06:32:36;;;;;;;;;;;;;;;24.71;38.13;98915.44;4939806;28;19922;-72
2023/02/23 06:35:04;;;;;;;;;;;;;;;25.02;39.76;98922.03;4967531;28;19962;-70
2023/02/23 06:37:29;;;;;;;;;;;;;;;25.19;39.03;98921.59;5005304;28;19922;-72
2023/02/23 06:39:54;;;;;;;;;;;;;;;25.40;37.90;98920.59;4968831;28;20028;-69
2023/02/23 06:42:20;;;;;;;;;;;;;;;25.60;36.73;98928.53;4960006;28;19949;-69
2023/02/23 06:44:45;;;;;;;;;;;;;;;25.78;35.98;98920.66;4961935;28;20397;-70
2023/02/23 06:47:10;;;;;;;;;;;;;;;25.83;35.61;98920.84;4961042;28;19925;-72
2023/02/23 06:49:36;;;;;;;;;;;;;;;25.89;35.43;98921.88;4990303;28;19929;-71
2023/02/23 06:52:01;;;;;;;;;;;;;;;25.99;35.10;98919.56;4959098;28;19918;-72
2023/02/23 06:54:26;;;;;;;;;;;;;;;26.26;35.03;98919.44;4958692;28;20337;-73
2023/02/23 06:56:54;;;;;;;;;;;;;;;26.37;34.45;98920.63;4958743;28;19922;-74
2023/02/23 06:59:20;;;;;;;;;;;;;;;26.50;34.28;98917.88;4958800;28;20005;-74
2023/02/23 07:01:45;;;;;;;;;;;;;;;26.68;33.75;98922.50;4958910;28;19998;-72
2023/02/23 07:04:10;;;;;;;;;;;;;;;26.88;33.19;98914.31;4958494;28;19929;-74
2023/02/23 07:06:36;;;;;;;;;;;;;;;27.09;32.75;98914.97;4958232;28;19918;-73
2023/02/23 07:09:02;;;;;;;;;;;;;;;27.27;32.46;98916.84;4942369;28;19918;-74
2023/02/23 07:11:27;;;;;;;;;;;;;;;27.49;32.05;98919.13;4958409;28;20397;-77
2023/02/23 07:13:53;;;;;;;;;;;;;;;27.64;31.55;98916.88;4959461;28;19918;-74
2023/02/23 07:16:18;;;;;;;;;;;;;;;27.87;31.05;98910.03;4959157;28;19926;-73
2023/02/23 07:18:43;;;;;;;;;;;;;;;28.04;30.54;98912.91;4958806;28;19926;-72
2023/02/23 07:21:09;;;;;;;;;;;;;;;28.24;29.72;98918.03;4974949;28;19922;-73
2023/02/23 07:23:34;;;;;;;;;;;;;;;28.37;29.63;98923.22;4958340;28;19918;-72
2023/02/23 07:25:59;;;;;;;;;;;;;;;28.53;29.13;98913.69;4957868;28;19933;-72
2023/02/23 07:28:27;;;;;;;;;;;;;;;29.38;28.54;98923.28;4975707;28;20305;-76
2023/02/23 07:30:54;;;;;;;;;;;;;;;31.13;23.16;98925.72;4964688;28;19922;-78
2023/02/23 07:33:19;;;;;;;;;;;;;;;31.98;21.55;98930.91;4978214;28;19941;-76
2023/02/23 07:35:45;;;;;;;;;;;;;;;32.45;20.27;98928.44;4977997;28;20385;-74
2023/02/23 07:38:11;;;;;;;;;;;;;;;32.74;19.49;98936.28;4994457;28;19925;-75
2023/02/23 07:40:36;;;;;;;;;;;;;;;32.75;19.04;98934.38;4994532;28;20344;-73
2023/02/23 07:43:02;;;;;;;;;;;;;;;31.97;18.03;98932.75;4992715;28;19922;-79
2023/02/23 07:45:27;;;;;;;;;;;;;;;30.79;18.75;98934.63;4966348;28;19924;-77
2023/02/23 07:47:52;;;;;;;;;;;;;;;29.57;19.72;98934.72;4968038;28;19925;-78
2023/02/23 07:50:18;;;;;;;;;;;;;;;28.60;20.20;98935.91;4965844;28;20328;-82
2023/02/23 07:52:43;;;;;;;;;;;;;;;28.10;21.33;98931.63;4967887;28;19933;-80
2023/02/23 07:55:09;;;;;;;;;;;;;;;26.87;21.54;98935.97;4970879;28;19929;-84
2023/02/23 07:57:34;;;;;;;;;;;;;;;26.10;22.41;98934.13;4987184;28;19925;-87
2023/02/23 07:59:59;;;;;;;;;;;;;;;26.10;24.59;98941.34;4981432;28;20373;-84
2023/02/23 08:02:25;;;;;;;;;;;;;;;26.44;22.80;98937.47;4966912;28;19921;-86
2023/02/23 08:04:53;;;;;;;;;;;;;;;25.57;22.92;98942.31;4958381;28;20008;-82
2023/02/23 08:07:18;;;;;;;;;;;;;;;25.14;24.52;98942.78;4954707;28;20343;-87
2023/02/23 08:09:44;;;;;;;;;;;;;;;24.60;23.53;98942.75;4977811;28;20312;-89
2023/02/23 08:12:11;;;;;;;;;;;;;;;24.29;24.65;98954.75;4977910;28;19917;-85
2023/02/23 08:14:36;;;;;;;;;;;;;;;24.50;26.69;98948.44;4954766;28;20112;-84
2023/02/23 08:17:02;;;;;;;;;;;;;;;24.10;26.84;98953.69;4986400;28;20404;-82
2023/02/23 08:19:27;;;;;;;;;;;;;;;24.19;27.57;98946.31;4969105;28;19948;-78
2023/02/23 08:21:52;;;;;;;;;;;;;;;24.57;25.96;98953.81;4987170;28;19918;-74
2023/02/23 08:24:18;;;;;;;;;;;;;;;25.22;26.14;98955.91;4967453;28;19930;-73
2023/02/23 08:26:43;;;;;;;;;;;;;;;25.95;25.19;98955.78;4965639;28;19922;-74
2023/02/23 08:29:08;;;;;;;;;;;;;;;26.64;24.09;98961.41;4965438;28;19918;-74
2023/02/23 08:31:34;;;;;;;;;;;;;;;27.25;23.53;98961.81;4982148;28;20406;-73
2023/02/23 08:33:59;;;;;;;;;;;;;;;27.73;23.27;98958.44;4984657;28;19922;-74
2023/02/23 08:36:25;;;;;;;;;;;;;;;28.14;22.97;98964.19;4965068;28;19917;-73
2023/02/23 08:38:50;;;;;;;;;;;;;;;28.54;22.46;98962.84;4983013;28;19934;-73
2023/02/23 08:41:15;;;;;;;;;;;;;;;28.95;21.92;98962.00;4966277;28;19922;-74
2023/02/23 08:43:41;;;;;;;;;;;;;;;29.30;21.51;98973.88;4964790;28;19954;-75
2023/02/23 08:46:06;;;;;;;;;;;;;;;29.62;21.68;98971.66;4965012;28;19928;-75
2023/02/23 08:48:32;;;;;;;;;;;;;;;29.98;20.96;98969.72;4964114;28;19926;-75
2023/02/23 08:50:57;;;;;;;;;;;;;;;30.28;21.35;98979.47;4983334;28;19926;-73
2023/02/23 08:53:24;;;;;;;;;;;;;;;30.28;21.17;98971.38;4982134;28;19976;-74
2023/02/23 08:55:53;;;;;;;;;;;;;;;29.70;21.40;98979.34;4966393;28;20393;-75
2023/02/23 08:58:19;;;;;;;;;;;;;;;29.32;21.24;98969.91;4964576;28;19945;-75
2023/02/23 09:00:44;;;;;;;;;;;;;;;28.52;22.50;98974.59;4951277;28;20290;-76
2023/02/23 09:03:09;;;;;;;;;;;;;;;28.83;21.27;98978.13;4989269;28;19933;-77
2023/02/23 09:05:35;;;;;;;;;;;;;;;29.41;20.09;98978.44;4982455;28;19957;-75
2023/02/23 09:08:00;;;;;;;;;;;;;;;30.58;19.12;98987.31;4970621;28;20021;-77
2023/02/23 09:10:27;;;;;;;;;;;;;;;29.36;20.31;98981.81;4993982;28;20414;-75
2023/02/23 09:12:54;;;;;;;;;;;;;;;31.47;18.25;98995.78;4980594;28;19940;-80
2023/02/23 09:15:19;;;;;;;;;;;;;;;32.37;18.56;98982.09;4964551;28;19925;-74
2023/02/23 09:17:46;;;;;;;;;;;;;;;33.27;17.48;98979.72;4976117;28;19918;-74
2023/02/23 09:20:12;;;;;;;;;;;;;;;33.55;16.49;98972.28;4993421;28;20016;-75
2023/02/23 09:22:44;;;;;;;;;;;;;;;33.23;16.79;98977.78;4960110;28;19922;-76
2023/02/23 09:25:11;;;;;;;;;;;;;;;32.83;17.08;98985.28;4960336;28;19925;-77
2023/02/23 09:27:36;;;;;;;;;;;;;;;32.92;19.18;98981.03;4960536;28;20476;-75
2023/02/23 09:30:02;;;;;;;;;;;;;;;32.76;18.19;98984.69;4990546;28;19925;-76
2023/02/23 09:32:27;;;;;;;;;;;;;;;32.36;18.29;98980.50;4960865;28;19918;-75
2023/02/23 09:34:53;;;;;;;;;;;;;;;32.17;17.60;98991.63;4975916;28;20385;-73
2023/02/23 09:37:18;;;;;;;;;;;;;;;31.51;18.75;98976.16;4959398;28;19922;-74
2023/02/23 09:39:44;;;;;;;;;;;;;;;31.05;19.29;98994.34;4976141;28;20025;-72
2023/02/23 09:42:18;;;;;;;;;;;;;;;30.96;20.04;98977.78;4993491;28;19918;-71
2023/02/23 09:44:44;;;;;;;;;;;;;;;30.66;20.56;98983.41;4975991;28;19918;-71
2023/02/23 09:47:09;;;;;;;;;;;;;;;30.28;21.20;98983.00;4975702;28;19925;-70
2023/02/23 09:49:36;;;;;;;;;;;;;;;30.48;20.63;98992.53;4975591;28;19918;-70
2023/02/23 09:52:02;;;;;;;;;;;;;;;29.80;22.76;98986.84;4992896;28;19992;-70
2023/02/23 09:54:29;;;;;;;;;;;;;;;29.88;21.68;98986.47;4974130;28;20589;-72
2023/02/23 09:56:57;;;;;;;;;;;;;;;29.56;22.39;98984.16;4991193;28;20316;-72
2023/02/23 09:59:23;;;;;;;;;;;;;;;29.19;22.51;98989.78;4974656;28;20006;-71
2023/02/23 10:02:08;;;;;;;;;;;;;;;29.38;22.21;98985.13;4975402;28;19922;-72
2023/02/23 10:04:48;;;;;;;;;;;;;;;28.86;22.72;98976.81;4993305;28;20301;-72
2023/02/23 10:07:37;;;;;;;;;;;;;;;28.98;22.51;98977.69;4992012;28;19918;-72
2023/02/23 10:10:09;;;;;;;;;;;;;;;28.47;23.09;98971.00;4914375;29;20485;-72
2023/02/23 10:12:39;;;;;;;;;;;;;;;28.60;22.81;98970.00;4898421;29;20334;-71
2023/02/23 10:15:11;;;;;;;;;;;;;;;28.11;23.45;98970.00;4898497;29;19919;-71
2023/02/23 10:18:15;;;;;;;;;;;;;;;28.25;23.54;98968.78;4916201;29;19919;-73
2023/02/23 10:20:43;;;;;;;;;;;;;;;28.47;23.21;98966.44;4861749;29;19920;-72
2023/02/23 10:23:12;;;;;;;;;;;;;;;28.40;23.21;98963.03;4861745;29;19920;-72
2023/02/23 10:25:40;;;;;;;;;;;;;;;28.57;23.01;98970.44;4861479;29;19920;-73
2023/02/23 10:28:07;;;;;;;;;;;;;;;28.57;23.17;98962.38;4861638;29;19923;-76
2023/02/23 10:30:33;;;;;;;;;;;;;;;28.75;22.95;98972.25;4861915;29;20022;-72
2023/02/23 10:32:58;;;;;;;;;;;;;;;28.72;22.78;98964.66;4860915;29;20407;-72
2023/02/23 10:35:25;;;;;;;;;;;;;;;28.47;23.14;98957.56;4861377;29;20016;-72
2023/02/23 10:37:50;;;;;;;;;;;;;;;28.52;23.16;98955.00;4861186;29;19920;-72
2023/02/23 10:40:17;;;;;;;;;;;;;;;28.13;23.24;98960.69;4845584;29;19927;-73
2023/02/23 10:42:42;;;;;;;;;;;;;;;27.82;23.56;98958.97;4861664;29;20395;-73
2023/02/23 10:45:21;;;;;;;;;;;;;;;27.70;23.46;98958.91;4861352;29;19921;-72
2023/02/23 10:47:46;;;;;;;;;;;;;;;27.18;24.05;98951.13;4891235;29;19923;-73
2023/02/23 10:50:12;;;;;;;;;;;;;;;27.23;23.94;98948.63;4917357;28;19927;-73
2023/02/23 10:52:41;;;;;;;;;;;;;;;26.89;24.28;98960.66;4995572;28;19918;-73
2023/02/23 10:55:07;;;;;;;;;;;;;;;26.64;24.55;98963.28;4979284;28;19917;-72
2023/02/23 10:57:33;;;;;;;;;;;;;;;26.60;24.76;98959.38;4994931;28;19925;-72
2023/02/23 11:00:25;;;;;;;;;;;;;;;26.24;24.79;98963.50;4996209;28;19976;-72
2023/02/23 11:02:51;;;;;;;;;;;;;;;26.17;25.32;98963.53;4995870;28;19926;-73
2023/02/23 11:05:33;;;;;;;;;;;;;;;25.88;25.62;98948.81;4994873;28;19925;-74
2023/02/23 11:08:30;;;;;;;;;;;;;;;25.52;26.06;98971.53;4994926;28;20015;-73
2023/02/23 11:11:07;;;;;;;;;;;;;;;25.21;26.08;98957.75;4917617;29;19923;-75
2023/02/23 11:13:43;;;;;;;;;;;;;;;24.90;26.60;98958.38;4901782;29;19987;-74
2023/02/23 11:16:09;;;;;;;;;;;;;;;24.68;26.85;98955.06;4902001;29;20118;-73
2023/02/23 11:18:34;;;;;;;;;;;;;;;24.50;27.29;98963.66;4917001;29;20010;-72
2023/02/23 11:20:59;;;;;;;;;;;;;;;24.24;27.50;98965.19;4901223;29;20062;-72
2023/02/23 11:23:33;;;;;;;;;;;;;;;24.04;27.78;98967.81;4901552;29;20017;-72
2023/02/23 11:26:01;;;;;;;;;;;;;;;23.79;28.14;98957.59;4916185;29;20310;-72
2023/02/23 11:28:33;;;;;;;;;;;;;;;23.52;28.56;98964.63;4900030;29;20395;-73
2023/02/23 11:31:00;;;;;;;;;;;;;;;23.30;28.75;98963.88;4901103;29;19919;-74
2023/02/23 11:33:28;;;;;;;;;;;;;;;23.06;29.08;98968.56;4901044;29;20299;-72
2023/02/23 11:35:57;;;;;;;;;;;;;;;22.77;29.53;98966.84;4900762;29;19919;-73
2023/02/23 11:38:23;;;;;;;;;;;;;;;22.53;30.01;98970.72;4885063;29;20430;-74
2023/02/23 11:40:58;;;;;;;;;;;;;;;22.26;30.41;98959.75;4900330;29;19923;-72
2023/02/23 11:43:24;;;;;;;;;;;;;;;21.94;30.58;98955.72;4900851;29;19919;-71
2023/02/23 11:45:49;;;;;;;;;;;;;;;21.74;31.03;98963.41;4900688;29;19927;-72
2023/02/23 11:48:24;;;;;;;;;;;;;;;21.53;31.33;98970.28;4988313;28;19918;-72
2023/02/23 11:50:49;;;;;;;;;;;;;;;21.38;31.69;98964.94;4994013;28;19917;-73
2023/02/23 11:53:15;;;;;;;;;;;;;;;21.26;31.98;98966.38;4977341;28;19918;-73
2023/02/23 11:55:53;;;;;;;;;;;;;;;21.19;32.07;98962.78;4977453;28;19968;-72
2023/02/23 11:58:36;;;;;;;;;;;;;;;21.07;32.21;98962.38;4977763;28;19921;-72
2023/02/23 12:01:11;;;;;;;;;;;;;;;20.95;32.49;98961.97;4995167;28;20008;-73
2023/02/23 12:03:36;;;;;;;;;;;;;;;20.83;32.93;98977.50;4977241;28;20357;-72
2023/02/23 12:06:01;;;;;;;;;;;;;;;20.72;33.00;98962.81;4993719;28;20000;-73
2023/02/23 12:08:38;;;;;;;;;;;;;;;20.63;33.02;98963.84;4994023;28;20308;-72
2023/02/23 12:11:05;;;;;;;;;;;;;;;20.53;33.29;98956.13;4993734;28;19925;-73
2023/02/23 12:13:31;;;;;;;;;;;;;;;20.48;33.40;98955.00;4993807;28;20451;-73
2023/02/23 12:15:58;;;;;;;;;;;;;;;20.43;33.53;98960.84;4991788;28;19921;-75
2023/02/23 12:18:36;;;;;;;;;;;;;;;20.42;33.68;98960.00;4974282;28;19918;-74
2023/02/23 12:21:21;;;;;;;;;;;;;;;20.42;33.75;98956.53;4994904;28;19925;-71
2023/02/23 12:23:47;;;;;;;;;;;;;;;20.40;33.71;98953.25;4976308;28;20312;-74
2023/02/23 12:26:17;;;;;;;;;;;;;;;20.38;33.84;98956.06;4977436;28;19965;-72
2023/02/23 12:29:06;;;;;;;;;;;;;;;20.35;34.19;98955.56;4977646;28;19918;-73
2023/02/23 12:31:39;;;;;;;;;;;;;;;20.38;34.05;98958.72;4986234;28;19918;-72
2023/02/23 12:34:10;;;;;;;;;;;;;;;20.45;43.52;98955.34;4961755;28;19928;-74
2023/02/23 12:36:39;;;;;;;;;;;;;;;20.55;40.70;98959.41;4976964;28;19969;-73
2023/02/23 12:39:10;;;;;;;;;;;;;;;20.61;39.62;98957.91;4977266;28;19918;-73
2023/02/23 12:41:39;;;;;;;;;;;;;;;20.54;38.83;98960.44;4976732;28;19976;-72
2023/02/23 12:44:14;;;;;;;;;;;;;;;20.48;39.48;98966.44;4977156;28;20021;-73
2023/02/23 12:46:46;;;;;;;;;;;;;;;20.43;38.88;98982.06;4977309;28;19922;-74
2023/02/23 12:49:30;;;;;;;;;;;;;;;20.36;38.07;98966.00;4978063;28;19918;-74
2023/02/23 12:52:01;;;;;;;;;;;;;;;20.31;39.21;98975.50;4993909;28;20385;-73
2023/02/23 12:54:26;;;;;;;;;;;;;;;20.25;39.13;98971.69;4960892;28;19917;-74
2023/02/23 12:56:57;;;;;;;;;;;;;;;20.18;38.91;98970.75;4994050;28;19941;-73
2023/02/23 12:59:25;;;;;;;;;;;;;;;20.15;41.04;98973.75;4994114;28;19925;-75
2023/02/23 13:01:54;;;;;;;;;;;;;;;20.13;39.94;98970.44;4994201;28;20016;-72
2023/02/23 13:04:22;;;;;;;;;;;;;;;20.10;39.44;98984.03;4993554;28;20452;-73
2023/02/23 13:07:11;;;;;;;;;;;;;;;20.04;38.82;98974.97;4976374;28;19925;-74
2023/02/23 13:09:54;;;;;;;;;;;;;;;20.00;38.29;98977.13;4915236;29;19974;-72
2023/02/23 13:12:35;;;;;;;;;;;;;;;19.98;38.04;98988.88;4899321;29;20018;-71
2023/02/23 13:15:09;;;;;;;;;;;;;;;19.92;37.58;98978.97;4899172;29;19966;-73
2023/02/23 13:17:39;;;;;;;;;;;;;;;19.84;37.35;98982.47;4899012;29;20328;-74
2023/02/23 13:20:04;;;;;;;;;;;;;;;19.75;37.09;98992.25;4899004;29;19919;-76
2023/02/23 13:22:41;;;;;;;;;;;;;;;19.63;37.21;98980.34;4914591;29;19977;-73
2023/02/23 13:25:32;;;;;;;;;;;;;;;19.53;37.27;98984.00;4883318;29;20021;-74
2023/02/23 13:28:01;;;;;;;;;;;;;;;19.44;37.12;98990.31;4893238;29;20014;-73
2023/02/23 13:30:29;;;;;;;;;;;;;;;19.34;36.96;98981.75;4899214;29;19923;-73
2023/02/23 13:32:55;;;;;;;;;;;;;;;19.21;37.24;98987.53;4899227;29;20501;-83
2023/02/23 13:35:22;;;;;;;;;;;;;;;19.12;37.39;98988.53;4898508;29;20022;-83
2023/02/23 13:37:53;;;;;;;;;;;;;;;19.27;47.45;98986.03;4873799;29;19971;-79
2023/02/23 13:40:27;;;;;;;;;;;;;;;19.40;46.95;98986.34;4894616;29;19928;-79
2023/02/23 13:42:57;;;;;;;;;;;;;;;19.61;46.83;98987.63;4894350;29;19923;-79
2023/02/23 13:45:41;;;;;;;;;;;;;;;19.64;45.80;98988.13;4895551;29;19934;-79
2023/02/23 13:48:19;;;;;;;;;;;;;;;19.48;43.53;98990.78;4982368;28;19918;-83
2023/02/23 13:50:53;;;;;;;;;;;;;;;19.24;42.79;98996.97;4952722;28;19928;-86
2023/02/23 13:53:38;;;;;;;;;;;;;;;19.02;42.64;99006.38;4964929;28;19926;-84
2023/02/23 13:56:09;;;;;;;;;;;;;;;18.86;42.33;98999.25;4972908;28;19933;-83
2023/02/23 13:58:36;;;;;;;;;;;;;;;18.69;41.96;99009.81;4982908;28;19922;-82
2023/02/23 14:01:06;;;;;;;;;;;;;;;18.55;41.44;99002.47;4967587;28;19955;-83
2023/02/23 14:03:33;;;;;;;;;;;;;;;18.46;49.76;99000.81;4952871;28;19953;-87
2023/02/23 14:05:59;;;;;;;;;;;;;;;18.39;45.49;99011.19;4983028;28;20302;-83
2023/02/23 14:08:35;;;;;;;;;;;;;;;18.32;44.61;99008.38;4967101;28;19977;-84
2023/02/23 14:11:02;;;;;;;;;;;;;;;18.20;44.18;99002.56;4965051;28;20444;-85
2023/02/23 14:13:29;;;;;;;;;;;;;;;18.13;47.99;99003.34;4980070;28;19976;-84